Time;durP1;ratioP1;P1;durP2;ratioP2;P2;SDS_P1;SDS_P2;PMS_P1;PMS_P2;Temp;Humidity;BMP_temperature;BMP_pressure;BME280_temperature;BME280_humidity;BME280_pressure;Samples;Min_cycle;Max_cycle;Signal;HPM_P1;HPM_P2
2022/06/01 00:01:00;;;;;;;5.18;3.20;;;;;;;21.03;42.16;101478.44;5093871;28;20031;-76
2022/06/01 00:03:29;;;;;;;6.68;3.50;;;;;;;21.07;41.86;101476.53;5093972;28;20024;-75
2022/06/01 00:05:55;;;;;;;4.85;3.22;;;;;;;21.05;42.02;101476.88;5093930;28;20024;-76
2022/06/01 00:08:22;;;;;;;7.47;3.80;;;;;;;21.07;42.18;101473.75;5093661;28;20434;-76
2022/06/01 00:10:49;;;;;;;9.73;3.70;;;;;;;21.18;41.86;101471.19;5093867;28;20069;-75
2022/06/01 00:13:14;;;;;;;5.38;3.03;;;;;;;21.19;41.75;101478.34;5093777;28;20101;-75
2022/06/01 00:15:40;;;;;;;5.63;3.80;;;;;;;21.19;41.80;101478.34;5075478;28;20487;-75
2022/06/01 00:18:06;;;;;;;7.43;3.83;;;;;;;21.10;41.90;101484.13;5075404;28;20024;-75
2022/06/01 00:20:32;;;;;;;5.60;2.85;;;;;;;21.01;42.21;101481.59;5093221;28;20386;-75
2022/06/01 00:22:57;;;;;;;8.70;4.05;;;;;;;21.08;41.94;101483.69;5075389;28;20031;-75
2022/06/01 00:25:24;;;;;;;6.38;3.17;;;;;;;20.99;42.25;101481.13;5093388;28;20127;-75
2022/06/01 00:27:50;;;;;;;4.45;2.85;;;;;;;21.08;42.08;101477.31;5093505;28;20024;-75
2022/06/01 00:30:17;;;;;;;8.15;3.40;;;;;;;21.00;42.24;101485.50;5093424;28;20016;-75
2022/06/01 00:32:43;;;;;;;5.85;2.85;;;;;;;20.95;42.24;101480.28;5093382;28;20486;-75
2022/06/01 00:35:11;;;;;;;3.90;2.92;;;;;;;20.98;42.14;101487.84;5093066;28;20427;-77
2022/06/01 00:37:37;;;;;;;3.92;2.70;;;;;;;21.04;42.10;101478.06;5092893;28;20020;-76
2022/06/01 00:40:04;;;;;;;7.15;2.80;;;;;;;21.00;41.93;101481.94;5093199;28;20024;-75
2022/06/01 00:42:32;;;;;;;4.93;2.20;;;;;;;21.03;42.11;101481.22;5093182;28;20032;-75
2022/06/01 00:44:58;;;;;;;3.38;2.30;;;;;;;20.97;42.30;101485.44;5074739;28;20027;-75
2022/06/01 00:47:26;;;;;;;6.28;2.40;;;;;;;20.91;42.27;101482.16;5074731;28;20024;-75
2022/06/01 00:50:00;;;;;;;5.75;2.60;;;;;;;20.81;42.42;101482.75;5092573;28;20035;-75
2022/06/01 00:52:37;;;;;;;4.65;2.65;;;;;;;20.80;42.52;101483.91;5092797;28;20032;-75
2022/06/01 00:55:06;;;;;;;5.65;3.40;;;;;;;20.74;42.49;101486.16;5093079;28;20103;-76
2022/06/01 00:57:33;;;;;;;4.53;2.92;;;;;;;20.83;42.21;101482.38;5093010;28;20480;-75
2022/06/01 01:00:06;;;;;;;5.75;2.92;;;;;;;20.68;42.59;101484.84;5092932;28;20032;-75
2022/06/01 01:02:32;;;;;;;5.65;3.75;;;;;;;20.71;42.33;101486.09;5092920;28;20036;-75
2022/06/01 01:04:58;;;;;;;4.78;3.15;;;;;;;20.65;42.36;101488.34;5092619;28;20024;-76
2022/06/01 01:07:26;;;;;;;6.80;3.47;;;;;;;20.69;42.42;101496.75;5092954;28;20032;-75
2022/06/01 01:09:52;;;;;;;5.50;3.47;;;;;;;20.70;42.45;101490.03;5092750;28;20034;-75
2022/06/01 01:12:18;;;;;;;7.90;3.20;;;;;;;20.77;42.22;101493.75;5074698;28;20032;-75
2022/06/01 01:14:45;;;;;;;4.35;2.92;;;;;;;20.75;42.26;101500.84;5092643;28;20097;-75
2022/06/01 01:17:12;;;;;;;6.53;3.72;;;;;;;20.73;42.36;101497.66;5093075;28;20035;-75
2022/06/01 01:19:51;;;;;;;14.27;3.58;;;;;;;20.68;42.56;101493.19;5092592;28;20050;-76
2022/06/01 01:22:32;;;;;;;4.93;3.50;;;;;;;20.62;42.71;101494.63;5092656;28;20032;-75
2022/06/01 01:25:16;;;;;;;6.68;3.50;;;;;;;20.59;42.45;101489.81;5092269;28;20101;-75
2022/06/01 01:27:42;;;;;;;6.55;4.07;;;;;;;20.59;42.57;101502.88;5092710;28;20016;-76
2022/06/01 01:30:40;;;;;;;6.07;3.28;;;;;;;20.59;42.72;101500.09;5092625;28;20020;-75
2022/06/01 01:33:16;;;;;;;4.75;3.25;;;;;;;20.57;42.72;101508.00;5092607;28;20383;-76
2022/06/01 01:35:44;;;;;;;5.88;3.05;;;;;;;20.64;42.51;101506.19;5092372;28;20035;-75
2022/06/01 01:38:21;;;;;;;6.13;3.75;;;;;;;20.57;42.84;101502.44;5092494;28;20036;-75
2022/06/01 01:40:59;;;;;;;6.90;3.42;;;;;;;20.54;43.05;101505.94;5073992;28;20036;-75
2022/06/01 01:43:25;;;;;;;4.25;2.83;;;;;;;20.65;42.48;101502.25;5092445;28;20032;-76
2022/06/01 01:45:51;;;;;;;6.18;3.40;;;;;;;20.60;42.77;101496.16;5092439;28;20398;-77
2022/06/01 01:48:17;;;;;;;5.43;3.60;;;;;;;20.61;42.70;101492.22;5092242;28;20032;-76
2022/06/01 01:50:43;;;;;;;8.25;3.85;;;;;;;20.61;42.63;101487.47;5074152;28;20039;-76
2022/06/01 01:53:08;;;;;;;6.00;3.90;;;;;;;20.73;42.29;101494.88;5092366;28;20020;-78
2022/06/01 01:56:03;;;;;;;6.88;3.30;;;;;;;20.61;42.58;101493.00;5092337;28;20390;-75
2022/06/01 01:58:42;;;;;;;4.85;3.03;;;;;;;20.66;42.58;101489.16;5092343;28;20032;-76
2022/06/01 02:01:15;;;;;;;5.30;3.38;;;;;;;20.65;42.54;101505.03;5077636;28;20051;-76
2022/06/01 02:03:55;;;;;;;4.97;3.80;;;;;;;20.60;42.76;101504.50;5096357;28;20028;-76
2022/06/01 02:06:35;;;;;;;9.02;4.05;;;;;;;20.55;42.86;101505.56;5077887;28;20592;-75
2022/06/01 02:09:07;;;;;;;4.10;3.47;;;;;;;20.56;42.73;101507.19;5078029;28;20114;-75
2022/06/01 02:14:40;;;;;;;5.30;3.20;;;;;;;20.48;42.70;101503.47;5095992;28;20082;-75
2022/06/01 02:17:09;;;;;;;4.30;3.25;;;;;;;20.44;42.68;101502.56;5095041;28;20028;-75
2022/06/01 02:20:10;;;;;;;6.00;2.80;;;;;;;20.36;42.97;101502.72;5095472;28;20028;-75
2022/06/01 02:22:37;;;;;;;4.60;3.10;;;;;;;20.36;42.96;101497.97;5074951;28;20051;-75
2022/06/01 02:25:03;;;;;;;6.22;3.35;;;;;;;20.36;42.76;101502.72;5076913;28;20054;-75
2022/06/01 02:27:29;;;;;;;4.30;3.20;;;;;;;20.33;42.77;101503.44;5095875;28;20073;-75
2022/06/01 02:30:02;;;;;;;5.45;3.28;;;;;;;20.27;42.84;101502.94;5096157;28;20036;-75
2022/06/01 02:32:28;;;;;;;7.22;3.20;;;;;;;20.31;42.75;101503.81;5095806;28;20439;-75
2022/06/01 02:34:58;;;;;;;6.95;3.30;;;;;;;20.30;42.82;101504.97;5095417;28;20034;-75
2022/06/01 02:37:26;;;;;;;6.32;2.90;;;;;;;20.29;42.63;101500.59;5111366;28;20028;-75
2022/06/01 02:39:54;;;;;;;4.78;2.78;;;;;;;20.15;42.97;101506.59;5095656;28;20397;-78
2022/06/01 02:42:26;;;;;;;6.53;2.83;;;;;;;20.18;42.79;101505.09;5095563;28;20046;-76
2022/06/01 02:44:57;;;;;;;5.65;2.72;;;;;;;20.15;42.97;101503.81;5095412;28;20069;-78
2022/06/01 02:47:23;;;;;;;4.00;2.70;;;;;;;20.12;42.95;101499.00;5095179;28;20677;-76
2022/06/01 02:49:49;;;;;;;3.10;2.30;;;;;;;20.19;42.88;101506.69;5093026;28;20036;-78
2022/06/01 02:52:15;;;;;;;6.85;2.92;;;;;;;20.22;42.61;101511.53;5094547;28;20108;-78
2022/06/01 02:54:40;;;;;;;4.72;2.63;;;;;;;20.22;42.71;101509.56;5094728;28;20034;-77
2022/06/01 02:57:07;;;;;;;4.10;2.67;;;;;;;20.16;42.95;101510.19;5094650;28;20094;-78
2022/06/01 02:59:33;;;;;;;4.88;3.20;;;;;;;20.26;42.97;101511.63;5076047;28;20115;-77
2022/06/01 03:01:59;;;;;;;3.38;2.53;;;;;;;20.27;42.69;101516.81;5094433;28;20111;-78
2022/06/01 03:04:26;;;;;;;3.60;2.60;;;;;;;20.29;42.61;101520.03;5094762;28;20109;-77
2022/06/01 03:06:53;;;;;;;7.45;2.70;;;;;;;20.28;42.69;101523.16;5094455;28;20024;-77
2022/06/01 03:09:18;;;;;;;7.70;2.80;;;;;;;20.26;42.64;101517.97;5095081;28;20028;-76
2022/06/01 03:11:44;;;;;;;7.18;2.90;;;;;;;20.29;42.55;101524.75;5093756;28;20058;-76
2022/06/01 03:14:10;;;;;;;5.30;2.88;;;;;;;20.30;42.53;101520.81;5094716;28;20028;-75
2022/06/01 03:16:37;;;;;;;2.78;2.15;;;;;;;20.29;42.42;101520.03;5094947;28;20047;-75
2022/06/01 03:19:03;;;;;;;5.07;2.75;;;;;;;20.31;42.43;101520.44;5094897;28;20111;-75
2022/06/01 03:21:29;;;;;;;5.50;2.70;;;;;;;20.26;42.43;101520.75;5094743;28;20036;-75
2022/06/01 03:23:55;;;;;;;6.78;2.97;;;;;;;20.17;42.58;101518.13;5094424;28;20506;-75
2022/06/01 03:26:22;;;;;;;7.22;3.38;;;;;;;20.18;42.47;101521.75;5076551;28;20028;-77
2022/06/01 03:28:48;;;;;;;4.45;2.95;;;;;;;20.15;42.35;101523.25;5076612;28;20032;-75
2022/06/01 03:31:14;;;;;;;3.28;2.85;;;;;;;20.15;42.21;101530.75;5076452;28;20039;-76
2022/06/01 03:33:40;;;;;;;7.28;2.75;;;;;;;20.11;42.19;101527.13;5076473;28;20032;-76
2022/06/01 03:36:06;;;;;;;5.45;2.95;;;;;;;20.04;42.08;101529.72;5076198;28;20051;-75
2022/06/01 03:38:32;;;;;;;6.05;2.42;;;;;;;19.94;42.28;101536.59;5094491;28;20459;-75
2022/06/01 03:40:58;;;;;;;5.13;2.67;;;;;;;19.93;42.03;101534.97;5094107;28;20119;-78
2022/06/01 03:43:24;;;;;;;3.92;3.20;;;;;;;19.90;42.11;101532.94;5094505;28;20052;-76
2022/06/01 03:45:56;;;;;;;4.85;3.10;;;;;;;19.77;42.42;101534.16;5075471;28;20421;-75
2022/06/01 03:48:32;;;;;;;6.22;3.13;;;;;;;19.68;42.36;101535.13;5076176;28;20024;-75
2022/06/01 03:50:58;;;;;;;4.03;2.55;;;;;;;19.61;42.11;101536.91;5094289;28;20024;-76
2022/06/01 03:53:25;;;;;;;7.75;2.53;;;;;;;19.61;42.34;101534.13;5094078;28;20497;-76
2022/06/01 03:55:52;;;;;;;4.90;3.10;;;;;;;19.58;42.20;101543.19;5094199;28;20417;-75
2022/06/01 03:58:22;;;;;;;5.90;3.22;;;;;;;19.58;41.92;101529.31;5094150;28;20028;-75
2022/06/01 04:00:49;;;;;;;6.45;3.30;;;;;;;19.53;42.00;101541.44;5094079;28;20017;-76
2022/06/01 04:03:15;;;;;;;4.10;3.40;;;;;;;19.49;41.93;101546.06;5067251;28;20593;-76
2022/06/01 04:05:41;;;;;;;5.95;3.03;;;;;;;19.47;41.82;101544.81;5073681;28;20024;-75
2022/06/01 04:08:07;;;;;;;5.53;3.30;;;;;;;19.38;41.92;101550.50;5074038;28;20025;-76
2022/06/01 04:10:36;;;;;;;9.52;3.17;;;;;;;19.26;42.17;101554.13;5093829;28;20024;-75
2022/06/01 04:13:02;;;;;;;3.92;3.22;;;;;;;19.22;42.12;101555.19;5093845;28;20106;-76
2022/06/01 04:15:27;;;;;;;6.90;3.75;;;;;;;19.15;42.38;101549.44;5093332;28;20028;-76
2022/06/01 04:17:53;;;;;;;4.80;3.55;;;;;;;19.15;42.08;101555.78;5093704;28;20497;-76
2022/06/01 04:20:19;;;;;;;7.30;3.83;;;;;;;19.11;42.12;101555.66;5093552;28;20117;-75
2022/06/01 04:22:46;;;;;;;5.60;3.17;;;;;;;19.02;42.39;101557.78;5093633;28;20457;-75
2022/06/01 04:25:17;;;;;;;6.50;3.65;;;;;;;19.04;42.40;101557.44;5093425;28;20051;-76
2022/06/01 04:27:44;;;;;;;6.20;3.95;;;;;;;18.94;42.55;101555.16;5093602;28;20039;-76
2022/06/01 04:30:12;;;;;;;4.15;3.55;;;;;;;18.78;43.04;101555.88;5093577;28;20032;-77
2022/06/01 04:32:38;;;;;;;8.35;4.07;;;;;;;18.79;42.90;101549.19;5093476;28;20036;-76
2022/06/01 04:35:06;;;;;;;6.25;4.03;;;;;;;18.75;43.03;101553.81;5093364;28;20028;-77
2022/06/01 04:37:31;;;;;;;6.70;4.35;;;;;;;18.77;42.96;101557.03;5093308;28;20103;-76
2022/06/01 04:39:57;;;;;;;7.45;4.35;;;;;;;18.72;43.13;101559.22;5093250;28;20058;-75
2022/06/01 04:42:22;;;;;;;4.75;3.63;;;;;;;18.71;42.94;101550.13;5093201;28;20382;-76
2022/06/01 04:44:48;;;;;;;5.53;4.32;;;;;;;18.65;43.07;101559.78;5074961;28;20035;-75
2022/06/01 04:47:14;;;;;;;5.13;4.00;;;;;;;18.61;43.23;101564.41;5093287;28;20031;-75
2022/06/01 04:49:40;;;;;;;5.35;3.85;;;;;;;18.62;43.06;101560.50;5074976;28;20428;-76
2022/06/01 04:52:06;;;;;;;6.32;4.15;;;;;;;18.55;43.22;101563.03;5074414;28;20031;-75
2022/06/01 04:54:32;;;;;;;8.93;4.85;;;;;;;18.54;43.04;101567.75;5093108;28;20024;-76
2022/06/01 04:56:58;;;;;;;4.88;3.92;;;;;;;18.50;43.21;101571.56;5108733;28;20085;-76
2022/06/01 04:59:23;;;;;;;5.22;4.03;;;;;;;18.49;43.09;101569.94;5092994;28;20115;-76
2022/06/01 05:01:49;;;;;;;7.75;4.30;;;;;;;18.53;42.89;101579.19;5074609;28;20032;-76
2022/06/01 05:04:15;;;;;;;8.52;3.90;;;;;;;18.48;42.92;101571.91;5092737;28;20483;-76
2022/06/01 05:06:40;;;;;;;6.22;3.90;;;;;;;18.47;43.42;101569.50;5074709;28;20058;-76
2022/06/01 05:09:06;;;;;;;4.65;3.88;;;;;;;18.36;43.43;101574.66;5092804;28;20150;-76
2022/06/01 05:11:35;;;;;;;6.05;3.92;;;;;;;18.37;43.44;101569.97;5092734;28;20458;-76
2022/06/01 05:14:01;;;;;;;8.82;4.03;;;;;;;18.47;43.31;101572.25;5092565;28;20379;-75
2022/06/01 05:16:26;;;;;;;6.88;4.28;;;;;;;18.54;43.36;101567.75;5072589;28;20024;-77
2022/06/01 05:18:53;;;;;;;7.68;4.30;;;;;;;18.60;43.14;101575.84;5054563;28;20028;-75
2022/06/01 05:21:19;;;;;;;6.35;4.25;;;;;;;18.62;43.32;101568.78;5072411;28;20036;-73
2022/06/01 05:23:44;;;;;;;8.07;4.35;;;;;;;18.75;43.33;101581.50;5083923;28;20075;-74
2022/06/01 05:26:10;;;;;;;6.80;4.45;;;;;;;18.74;43.42;101579.06;5092762;28;20630;-75
2022/06/01 05:28:36;;;;;;;5.40;3.75;;;;;;;18.85;43.35;101571.91;5092585;28;20028;-75
2022/06/01 05:31:09;;;;;;;6.40;4.13;;;;;;;18.89;43.34;101586.66;5092643;28;20067;-74
2022/06/01 05:33:35;;;;;;;9.63;4.43;;;;;;;18.93;43.22;101584.00;5092540;28;20032;-76
2022/06/01 05:36:02;;;;;;;7.28;4.60;;;;;;;19.03;43.18;101586.28;5092109;28;20032;-75
2022/06/01 05:38:28;;;;;;;4.70;3.80;;;;;;;19.07;43.42;101589.97;5092539;28;20024;-75
2022/06/01 05:40:55;;;;;;;7.03;4.10;;;;;;;19.14;43.45;101592.97;5092327;28;20051;-76
2022/06/01 05:43:21;;;;;;;4.65;3.88;;;;;;;19.23;43.47;101590.84;5092418;28;20074;-76
2022/06/01 05:45:47;;;;;;;8.43;5.25;;;;;;;19.24;43.50;101589.69;5091985;28;20036;-76
2022/06/01 05:48:17;;;;;;;7.25;4.78;;;;;;;19.29;43.65;101583.91;5074187;28;20032;-76
2022/06/01 05:50:43;;;;;;;5.50;4.53;;;;;;;19.21;43.86;101590.41;5074356;28;20085;-76
2022/06/01 05:53:09;;;;;;;5.90;4.45;;;;;;;19.36;43.86;101589.66;5091988;28;20032;-75
2022/06/01 05:55:35;;;;;;;6.88;4.95;;;;;;;19.65;43.62;101590.50;5074190;28;20035;-76
2022/06/01 05:58:22;;;;;;;7.35;4.05;;;;;;;19.66;43.85;101594.88;5074039;28;20035;-76
2022/06/01 06:00:49;;;;;;;9.40;4.38;;;;;;;19.85;43.63;101599.75;5091526;28;20067;-75
2022/06/01 06:03:18;;;;;;;6.72;4.40;;;;;;;19.96;43.57;101592.53;5092058;28;20081;-76
2022/06/01 06:08:29;;;;;;;5.75;3.97;;;;;;;20.29;43.22;101597.72;5092461;28;20386;-76
2022/06/01 06:10:54;;;;;;;8.63;4.35;;;;;;;20.21;43.66;101605.06;5092250;28;20032;-75
2022/06/01 06:13:20;;;;;;;5.85;3.75;;;;;;;20.30;43.60;101604.06;5092115;28;20036;-75
2022/06/01 06:15:46;;;;;;;5.45;4.13;;;;;;;20.29;43.40;101603.28;5073740;28;20115;-76
2022/06/01 06:18:13;;;;;;;10.43;3.85;;;;;;;20.19;43.73;101601.84;5099540;28;20482;-76
2022/06/01 06:20:43;;;;;;;6.25;3.83;;;;;;;20.34;43.59;101604.97;5092178;28;20036;-75
2022/06/01 06:23:09;;;;;;;;;;;;;;;20.32;43.70;101612.84;5074428;28;20028;-76
2022/06/01 06:25:35;;;;;;;4.22;3.25;;;;;;;20.42;43.51;101607.56;5073733;28;19920;-75
2022/06/01 06:28:01;;;;;;;7.15;3.60;;;;;;;20.45;43.48;101619.94;5073975;28;20031;-76
2022/06/01 06:30:27;;;;;;;6.63;3.63;;;;;;;20.55;43.35;101610.25;5092157;28;20028;-76
2022/06/01 06:32:52;;;;;;;7.88;4.55;;;;;;;20.64;43.17;101619.22;5073873;28;20031;-76
2022/06/01 06:35:18;;;;;;;6.78;4.75;;;;;;;20.69;43.34;101635.59;5091970;28;20636;-74
2022/06/01 06:37:44;;;;;;;9.05;4.15;;;;;;;20.63;43.27;101628.69;5092060;28;20031;-75
2022/06/01 06:40:10;;;;;;;8.00;4.30;;;;;;;20.72;42.98;101632.91;5073764;28;20020;-74
2022/06/01 06:42:36;;;;;;;5.25;3.33;;;;;;;20.76;43.02;101631.03;5073647;28;20032;-74
2022/06/01 06:45:03;;;;;;;7.18;3.70;;;;;;;20.89;42.83;101630.91;5091910;28;20020;-73
2022/06/01 06:47:32;;;;;;;10.85;3.97;;;;;;;20.81;42.98;101638.28;5093593;28;20155;-74
2022/06/01 06:49:58;;;;;;;6.45;4.18;;;;;;;21.02;42.56;101629.63;5095386;28;20024;-75
2022/06/01 06:52:24;;;;;;;7.38;4.20;;;;;;;21.01;42.70;101641.91;5095439;28;20055;-75
2022/06/01 06:54:49;;;;;;;5.65;4.40;;;;;;;21.06;42.61;101645.19;5095344;28;20494;-74
2022/06/01 06:57:15;;;;;;;6.72;3.95;;;;;;;21.19;42.46;101651.44;5095330;28;20432;-74
2022/06/01 06:59:41;;;;;;;5.10;3.92;;;;;;;21.14;42.49;101656.47;5095232;28;20024;-74
2022/06/01 07:02:06;;;;;;;4.32;3.63;;;;;;;21.24;42.16;101653.16;5094973;28;20070;-75
2022/06/01 07:04:32;;;;;;;5.93;3.50;;;;;;;21.25;42.22;101657.53;5077055;28;20506;-73
2022/06/01 07:06:58;;;;;;;5.70;3.75;;;;;;;21.29;42.08;101672.34;5094741;28;20382;-74
2022/06/01 07:09:24;;;;;;;7.45;3.58;;;;;;;21.42;41.95;101664.69;5093938;28;20028;-75
2022/06/01 07:11:49;;;;;;;7.80;3.95;;;;;;;21.37;41.95;101671.31;5076864;28;20111;-76
2022/06/01 07:14:15;;;;;;;9.15;5.38;;;;;;;21.40;41.85;101667.81;5076254;28;20551;-77
2022/06/01 07:16:40;;;;;;;6.97;4.25;;;;;;;21.71;41.17;101672.44;5094618;28;20051;-78
2022/06/01 07:19:08;;;;;;;5.03;3.90;;;;;;;21.63;41.31;101681.00;5094860;28;20028;-77
2022/06/01 07:21:36;;;;;;;6.43;3.83;;;;;;;21.68;41.19;101677.91;5094433;28;20028;-77
2022/06/01 07:24:04;;;;;;;5.47;3.63;;;;;;;21.81;40.90;101676.59;5093450;28;20047;-76
2022/06/01 07:26:33;;;;;;;6.85;4.25;;;;;;;21.75;40.81;101684.44;5094789;28;20028;-77
2022/06/01 07:28:59;;;;;;;7.40;3.30;;;;;;;21.80;40.50;101686.13;5094863;28;20027;-78
2022/06/01 07:31:25;;;;;;;5.03;3.38;;;;;;;21.84;40.51;101687.81;5092735;28;20405;-78
2022/06/01 07:33:51;;;;;;;9.82;3.85;;;;;;;21.87;40.40;101680.72;5076158;28;20122;-78
2022/06/01 07:36:17;;;;;;;6.72;4.00;;;;;;;21.97;40.43;101685.66;5094312;28;20024;-78
2022/06/01 07:44:41;;;;;;;4.10;2.95;;;;;;;22.49;40.27;101686.25;5050910;28;20055;-79
2022/06/01 07:47:09;;;;;;;6.18;3.65;;;;;;;22.55;40.46;101693.13;5084731;28;20040;-78
2022/06/01 07:49:36;;;;;;;11.05;4.63;;;;;;;22.45;40.63;101693.75;5093484;28;20107;-77
2022/06/01 07:52:07;;;;;;;4.53;3.95;;;;;;;22.32;40.38;101696.72;5093782;28;20081;-76
2022/06/01 07:54:36;;;;;;;8.18;3.97;;;;;;;22.08;40.04;101699.84;5094347;28;20028;-77
2022/06/01 07:57:02;;;;;;;5.10;2.90;;;;;;;21.99;40.92;101702.81;5075818;28;20099;-76
2022/06/01 07:59:27;;;;;;;6.38;3.92;;;;;;;22.02;40.60;101701.28;5094153;28;20435;-76
2022/06/01 08:01:53;;;;;;;9.27;3.42;;;;;;;22.09;40.82;101698.66;5094027;28;20059;-75
2022/06/01 08:04:19;;;;;;;9.25;3.60;;;;;;;22.10;40.89;101701.06;5094092;28;20056;-77
2022/06/01 08:06:45;;;;;;;4.03;2.88;;;;;;;22.30;40.40;101703.84;5093911;28;20050;-76
2022/06/01 08:09:11;;;;;;;7.45;3.03;;;;;;;22.51;40.47;101704.19;5075761;28;20482;-76
2022/06/01 08:14:20;;;;;;;4.47;3.00;;;;;;;22.78;39.99;101707.03;5094226;28;20035;-76
2022/06/01 08:16:46;;;;;;;7.05;3.88;;;;;;;22.73;39.49;101701.78;5094012;28;20393;-76
2022/06/01 08:19:13;;;;;;;6.20;3.88;;;;;;;22.67;39.50;101704.88;5075631;28;20028;-76
2022/06/01 08:21:39;;;;;;;4.65;2.80;;;;;;;22.85;39.20;101705.19;5093754;28;20489;-76
2022/06/01 08:24:06;;;;;;;5.57;3.17;;;;;;;23.03;38.79;101708.25;5093464;28;20052;-75
2022/06/01 08:26:32;;;;;;;4.07;2.80;;;;;;;23.03;38.73;101702.69;5093224;28;20036;-75
2022/06/01 08:28:58;;;;;;;4.85;3.13;;;;;;;23.17;38.39;101702.09;5075397;28;20055;-75
2022/06/01 08:31:27;;;;;;;5.30;2.80;;;;;;;23.22;38.19;101713.75;5075470;28;20031;-74
2022/06/01 08:34:04;;;;;;;3.42;2.55;;;;;;;23.35;38.29;101703.19;5075410;28;20587;-75
2022/06/01 08:36:31;;;;;;;8.95;3.80;;;;;;;23.52;37.73;101710.16;5093256;28;20054;-75
2022/06/01 08:38:56;;;;;;;6.07;2.97;;;;;;;23.53;38.27;101706.19;5075312;28;20478;-74
2022/06/01 08:41:36;;;;;;;4.28;3.13;;;;;;;23.42;38.14;101713.59;5093092;28;20032;-74
2022/06/01 08:44:25;;;;;;;3.50;2.28;;;;;;;23.39;37.71;101714.38;5075249;28;20475;-75
2022/06/01 08:46:58;;;;;;;3.70;2.27;;;;;;;23.38;37.24;101712.75;5093508;28;20032;-75
2022/06/01 08:49:28;;;;;;;6.80;3.25;;;;;;;23.35;37.40;101711.53;5093559;28;20628;-74
2022/06/01 08:51:54;;;;;;;3.50;2.15;;;;;;;23.49;37.16;101714.50;5093292;28;20024;-74
2022/06/01 08:54:21;;;;;;;5.03;2.47;;;;;;;23.34;37.50;101717.47;5093295;28;20111;-75
2022/06/01 08:56:50;;;;;;;5.70;2.92;;;;;;;23.34;37.22;101715.47;5093150;28;20397;-75
2022/06/01 08:59:49;;;;;;;7.50;2.55;;;;;;;23.64;37.18;101718.31;5074945;28;20024;-75
2022/06/01 09:02:36;;;;;;;6.88;2.95;;;;;;;23.70;37.28;101719.59;5074995;28;20040;-76
2022/06/01 09:05:18;;;;;;;11.15;3.65;;;;;;;23.77;37.12;101721.69;5074893;28;20019;-76
2022/06/01 09:08:07;;;;;;;9.95;4.63;;;;;;;23.80;37.15;101726.47;5074614;28;20119;-77
2022/06/01 09:10:35;;;;;;;3.50;2.72;;;;;;;24.11;37.27;101728.06;5092343;28;20027;-76
2022/06/01 09:13:07;;;;;;;4.18;2.65;;;;;;;24.37;37.21;101732.75;5092873;28;20024;-77
2022/06/01 09:16:06;;;;;;;5.32;2.80;;;;;;;24.38;35.55;101728.78;5074739;28;20070;-76
2022/06/01 09:18:44;;;;;;;4.05;2.50;;;;;;;24.64;35.82;101733.44;5089589;28;20040;-76
2022/06/01 09:24:15;;;;;;;11.23;2.70;;;;;;;24.90;36.07;101730.44;5092744;28;20097;-76
2022/06/01 09:26:55;;;;;;;2.75;1.98;;;;;;;25.17;34.84;101727.50;5074720;28;20051;-76
2022/06/01 09:29:22;;;;;;;;;;;;;;;25.06;35.69;101726.59;5093399;28;20034;-78
2022/06/01 09:31:54;;;;;;;6.72;2.50;;;;;;;25.38;35.43;101733.19;5074326;28;20014;-77
2022/06/01 09:34:38;;;;;;;3.17;2.35;;;;;;;25.78;34.59;101725.06;5074672;28;20032;-74
2022/06/01 09:37:17;;;;;;;7.60;2.38;;;;;;;26.09;34.22;101737.56;5092336;28;20024;-74
2022/06/01 09:39:59;;;;;;;5.72;1.73;;;;;;;26.10;32.82;101733.56;5092477;28;20066;-77
2022/06/01 09:42:28;;;;;;;24.08;4.38;;;;;;;26.13;33.65;101741.16;5092594;28;20089;-76
2022/06/01 09:44:57;;;;;;;14.30;1.83;;;;;;;26.12;33.11;101731.16;5092556;28;20016;-75
2022/06/01 09:47:43;;;;;;;35.40;4.38;;;;;;;26.20;31.93;101732.78;5092635;28;20066;-75
2022/06/01 09:50:24;;;;;;;1.98;1.35;;;;;;;26.16;32.70;101734.78;5092531;28;20024;-75
2022/06/01 09:52:57;;;;;;;7.63;2.17;;;;;;;26.26;32.17;101736.78;5074320;28;20057;-76
2022/06/01 09:55:25;;;;;;;3.70;1.65;;;;;;;26.35;31.98;101734.41;5092430;28;20024;-75
2022/06/01 09:58:05;;;;;;;12.75;3.13;;;;;;;26.42;32.11;101728.84;5092477;28;20024;-76
2022/06/01 10:06:19;;;;;;;8.15;2.67;;;;;;;26.52;32.26;101738.47;5092579;28;20050;-75
2022/06/01 10:08:58;;;;;;;5.55;2.90;;;;;;;26.45;32.67;101730.03;5074361;28;20024;-76
2022/06/01 10:11:36;;;;;;;16.73;3.90;;;;;;;26.69;32.26;101726.47;5092640;28;20111;-76
2022/06/01 10:14:04;;;;;;;7.55;2.65;;;;;;;26.76;32.47;101736.91;5092395;28;20390;-77
2022/06/01 10:16:52;;;;;;;33.72;7.50;;;;;;;26.77;32.08;101732.88;5092300;28;20359;-77
2022/06/01 10:19:25;;;;;;;16.77;3.65;;;;;;;26.88;31.95;101732.88;5092309;28;20103;-77
2022/06/01 10:22:20;;;;;;;2.65;1.95;;;;;;;27.04;32.07;101741.69;5076770;28;20097;-77
2022/06/01 10:24:56;;;;;;;3.78;1.73;;;;;;;26.96;31.88;101734.47;5064417;28;20490;-77
2022/06/01 10:27:31;;;;;;;28.75;4.10;;;;;;;26.86;31.95;101744.50;5096088;28;20024;-77
2022/06/01 10:30:20;;;;;;;6.65;2.38;;;;;;;26.93;31.00;101740.91;5089512;28;20054;-76
2022/06/01 10:33:03;;;;;;;2.03;1.35;;;;;;;26.96;30.86;101740.88;5095863;28;20057;-76
2022/06/01 10:35:43;;;;;;;4.00;1.70;;;;;;;27.21;29.74;101743.72;5077782;28;20028;-76
2022/06/01 10:38:30;;;;;;;4.47;2.60;;;;;;;26.89;31.31;101743.69;5077256;28;20126;-76
2022/06/01 10:41:06;;;;;;;4.93;2.35;;;;;;;26.63;31.22;101744.09;5077278;28;20055;-76
2022/06/01 10:43:45;;;;;;;5.32;2.83;;;;;;;26.74;31.12;101744.88;5095661;28;20025;-77
2022/06/01 10:46:37;;;;;;;3.42;1.92;;;;;;;26.65;31.00;101747.28;5072738;28;20090;-77
2022/06/01 10:49:41;;;;;;;2.80;1.95;;;;;;;26.62;31.44;101742.50;5095548;28;20114;-77
2022/06/01 10:52:32;;;;;;;3.13;1.98;;;;;;;26.81;31.18;101751.28;5095582;28;20032;-76
2022/06/01 10:55:20;;;;;;;3.25;1.88;;;;;;;26.72;31.08;101761.31;5077490;28;20024;-77
2022/06/01 10:57:48;;;;;;;0.82;0.80;;;;;;;26.65;30.77;101762.09;5095613;28;20060;-77
2022/06/01 11:00:17;;;;;;;2.63;1.30;;;;;;;26.74;30.17;101761.72;5077130;28;20031;-77
2022/06/01 11:03:02;;;;;;;5.68;3.03;;;;;;;27.05;29.85;101758.16;5095360;28;20024;-76
2022/06/01 11:05:33;;;;;;;5.55;2.05;;;;;;;26.88;30.60;101767.31;5076887;28;20043;-76
2022/06/01 11:08:04;;;;;;;2.85;1.23;;;;;;;26.86;30.48;101772.53;5095193;28;20103;-77
2022/06/01 11:10:45;;;;;;;3.90;1.73;;;;;;;26.84;30.25;101769.34;5095321;28;20024;-77
2022/06/01 11:13:19;;;;;;;3.13;1.50;;;;;;;26.57;30.30;101777.31;5095213;28;20497;-76
2022/06/01 11:16:21;;;;;;;3.97;1.63;;;;;;;26.42;30.60;101775.69;5077034;28;20028;-77
2022/06/01 11:18:58;;;;;;;5.22;1.30;;;;;;;26.60;30.59;101770.09;5076625;28;20028;-76
2022/06/01 11:21:49;;;;;;;3.25;1.10;;;;;;;26.58;30.25;101773.31;5094993;28;20421;-77
2022/06/01 11:24:27;;;;;;;5.72;1.63;;;;;;;26.31;30.20;101781.25;5094567;28;20044;-77
2022/06/01 11:27:21;;;;;;;1.23;1.02;;;;;;;26.67;29.35;101772.91;5076742;28;20047;-76
2022/06/01 11:30:03;;;;;;;1.48;1.00;;;;;;;26.39;29.86;101777.28;5076825;28;20367;-77
2022/06/01 11:32:38;;;;;;;3.38;1.10;;;;;;;26.06;29.69;101781.13;5075936;28;20031;-77
2022/06/01 11:35:16;;;;;;;4.45;1.40;;;;;;;26.36;29.53;101778.03;5094545;28;20378;-76
2022/06/01 11:37:55;;;;;;;2.72;1.15;;;;;;;26.58;29.61;101780.91;5094672;28;20063;-77
2022/06/01 11:40:43;;;;;;;2.42;1.42;;;;;;;26.53;30.31;101787.72;5076523;28;20024;-77
2022/06/01 11:43:51;;;;;;;5.80;1.80;;;;;;;26.64;30.47;101784.94;5089630;28;20039;-77
2022/06/01 11:46:24;;;;;;;1.98;0.98;;;;;;;26.69;29.93;101782.53;5012222;28;20029;-77
2022/06/01 11:49:04;;;;;;;3.53;1.20;;;;;;;26.76;29.54;101782.56;5012399;28;20030;-76
2022/06/01 11:51:36;;;;;;;3.65;1.50;;;;;;;26.92;29.35;101782.16;5064441;28;20372;-76
2022/06/01 11:54:09;;;;;;;2.42;0.85;;;;;;;26.99;29.84;101784.97;5094201;28;20030;-76
2022/06/01 11:56:44;;;;;;;4.15;1.10;;;;;;;27.08;29.75;101782.59;5076206;28;20028;-76
2022/06/01 11:59:35;;;;;;;2.38;1.10;;;;;;;27.12;29.63;101782.56;5094377;28;20024;-76
2022/06/01 12:02:19;;;;;;;1.00;0.90;;;;;;;27.16;28.73;101779.78;5093648;28;20044;-77
2022/06/01 12:05:08;;;;;;;4.28;1.25;;;;;;;27.20;29.35;101784.16;5075797;28;20028;-77